Morton, Washington
Current Conditions -  °F | °C
As of 2:15 PM on Thursday 18 Dec 2014 (Local Time) from KCLS Reporting Station
Overcast Overcast  
Wind Chill: 52°   Ceiling: 5000
Heat Index: 52°   Visibility: 10mi
Dew Point: 48°   Wind: 12mph
Humidity: 88%   Direction: 180°S
Pressure: 29.81"   Gusts: NA
Location:  46.56°N, 122.28°W
Report Text: KCLS 182215Z AUTO 18010KT 10SM SCT029 BKN050 OVC085 11/09 A2981 RMK AO2
Loading
Personal Weather Stations






























Interactive Weather Map New forecast layout! Learn more

10-Day Weather Forecast

Advertisements
Track Severe Weather on mobile